Time;durP1;ratioP1;P1;durP2;ratioP2;P2;SDS_P1;SDS_P2;PMS_P1;PMS_P2;Temp;Humidity;BMP_temperature;BMP_pressure;BME280_temperature;BME280_humidity;BME280_pressure;Samples;Min_cycle;Max_cycle;Signal;HPM_P1;HPM_P2
2021/12/18 00:01:08;;;;;;;16.00;8.40;;;-0.30;99.90;;;;;;5034734;28;20397;-72
2021/12/18 00:03:34;;;;;;;16.73;8.13;;;-0.30;99.90;;;;;;5035929;28;20476;-72
2021/12/18 00:06:01;;;;;;;15.98;8.40;;;-0.30;99.90;;;;;;5034732;28;20090;-72
2021/12/18 00:08:27;;;;;;;16.00;8.00;;;-0.30;99.90;;;;;;5034965;28;20029;-72
2021/12/18 00:10:55;;;;;;;16.08;8.55;;;-0.40;99.90;;;;;;5034272;28;20057;-72
2021/12/18 00:13:23;;;;;;;15.45;8.20;;;-0.30;99.90;;;;;;5034820;28;20477;-71
2021/12/18 00:15:49;;;;;;;15.52;7.93;;;-0.30;99.90;;;;;;5035446;28;20095;-72
2021/12/18 00:18:15;;;;;;;16.02;8.07;;;-0.30;99.90;;;;;;5036792;28;20018;-72
2021/12/18 00:20:41;;;;;;;16.70;8.25;;;-0.30;99.90;;;;;;5034827;28;20083;-72
2021/12/18 00:23:07;;;;;;;14.90;7.68;;;-0.30;99.90;;;;;;5034563;28;20026;-72
2021/12/18 00:25:34;;;;;;;15.23;8.15;;;-0.40;99.90;;;;;;5034891;28;20109;-72
2021/12/18 00:28:00;;;;;;;16.92;7.47;;;-0.40;99.90;;;;;;5034445;28;20026;-72
2021/12/18 00:30:26;;;;;;;17.55;8.27;;;-0.50;99.90;;;;;;5034647;28;20025;-71
2021/12/18 00:32:53;;;;;;;16.00;8.32;;;-0.60;99.90;;;;;;5036128;28;20480;-72
2021/12/18 00:35:19;;;;;;;16.77;8.02;;;-0.60;99.90;;;;;;5034634;28;20079;-72
2021/12/18 00:37:46;;;;;;;15.23;8.13;;;-0.60;99.90;;;;;;5034361;28;20069;-72
2021/12/18 00:40:18;;;;;;;17.83;8.38;;;-0.60;99.90;;;;;;5034018;28;20500;-72
2021/12/18 00:45:17;;;;;;;18.90;9.02;;;-0.70;99.90;;;;;;5035510;28;20371;-72
2021/12/18 00:47:45;;;;;;;19.17;10.35;;;-0.60;99.90;;;;;;5034456;28;20026;-71
2021/12/18 00:50:24;;;;;;;18.77;8.70;;;-0.60;99.90;;;;;;5035634;28;20477;-71
2021/12/18 00:52:51;;;;;;;18.92;9.23;;;-0.60;99.90;;;;;;5034161;28;20468;-70
2021/12/18 00:55:21;;;;;;;16.30;8.10;;;-0.70;99.90;;;;;;5033960;28;20139;-69
2021/12/18 00:57:48;;;;;;;19.85;8.80;;;-0.70;99.90;;;;;;5035480;28;20021;-69
2021/12/18 01:00:21;;;;;;;16.90;8.73;;;-0.70;99.90;;;;;;5034491;28;20396;-69
2021/12/18 01:02:49;;;;;;;19.38;9.50;;;-0.80;99.90;;;;;;5032841;28;20026;-70
2021/12/18 01:05:15;;;;;;;19.42;9.50;;;-0.80;99.90;;;;;;5033949;28;20413;-70
2021/12/18 01:07:41;;;;;;;19.20;9.30;;;-0.80;99.90;;;;;;5034981;28;20372;-69
2021/12/18 01:12:55;;;;;;;20.90;9.82;;;-0.80;99.90;;;;;;5034711;28;20035;-70
2021/12/18 01:15:28;;;;;;;19.85;9.48;;;-0.70;99.90;;;;;;5034953;28;20428;-69
2021/12/18 01:23:24;;;;;;;14.20;7.53;;;-0.70;99.90;;;;;;5034750;28;20055;-69
2021/12/18 01:25:52;;;;;;;19.05;9.32;;;-0.70;99.90;;;;;;5034991;28;20482;-69
2021/12/18 01:28:19;;;;;;;17.27;9.18;;;-0.70;99.90;;;;;;5035231;28;20394;-69
2021/12/18 01:30:45;;;;;;;17.92;8.30;;;-0.60;99.90;;;;;;5032960;28;20025;-69
2021/12/18 01:33:11;;;;;;;17.42;8.80;;;-0.60;99.90;;;;;;5035010;28;20444;-69
2021/12/18 01:35:37;;;;;;;17.08;8.40;;;-0.60;99.90;;;;;;5033865;28;20397;-69
2021/12/18 01:38:04;;;;;;;15.13;8.10;;;-0.60;99.90;;;;;;5035043;28;20021;-69
2021/12/18 01:40:30;;;;;;;16.63;7.85;;;-0.60;99.90;;;;;;5034877;28;20436;-69
2021/12/18 01:51:22;;;;;;;17.15;8.88;;;-0.70;99.90;;;;;;5035089;28;20036;-69
2021/12/18 01:53:53;;;;;;;18.23;9.13;;;-0.70;99.90;;;;;;5033564;28;20040;-69
2021/12/18 01:56:20;;;;;;;13.15;6.80;;;-0.70;99.90;;;;;;5034082;28;20081;-69
2021/12/18 01:58:46;;;;;;;16.27;8.23;;;-0.70;99.90;;;;;;5035511;28;20052;-69
2021/12/18 02:01:14;;;;;;;12.90;6.95;;;-0.70;99.90;;;;;;5036975;28;20036;-69
2021/12/18 02:03:41;;;;;;;11.45;6.47;;;-0.70;99.90;;;;;;5038283;28;20057;-69
2021/12/18 02:06:08;;;;;;;14.63;7.18;;;-0.70;99.90;;;;;;5039510;28;20022;-69
2021/12/18 02:08:38;;;;;;;18.38;7.40;;;-0.70;99.90;;;;;;5040665;28;20423;-69
2021/12/18 02:21:32;;;;;;;14.90;7.78;;;-0.90;99.90;;;;;;5039520;28;20041;-69
2021/12/18 02:23:58;;;;;;;13.55;7.55;;;-0.90;99.90;;;;;;5037494;28;20033;-68
2021/12/18 02:26:24;;;;;;;14.52;7.63;;;-0.90;99.90;;;;;;5038826;28;20484;-69
2021/12/18 02:28:52;;;;;;;13.32;7.07;;;-1.00;99.90;;;;;;5039105;28;20477;-69
2021/12/18 02:31:19;;;;;;;12.68;7.45;;;-1.00;99.90;;;;;;5037726;28;20029;-69
2021/12/18 02:33:46;;;;;;;16.50;7.50;;;-0.90;99.90;;;;;;5038485;28;20154;-69
2021/12/18 02:36:21;;;;;;;14.98;8.18;;;-1.00;99.90;;;;;;5037735;28;20023;-69
2021/12/18 02:44:07;;;;;;;15.75;7.70;;;-1.00;99.90;;;;;;5039976;28;20036;-69
2021/12/18 02:46:33;;;;;;;16.43;7.97;;;-0.90;99.90;;;;;;5037808;28;20033;-69
2021/12/18 02:49:15;;;;;;;14.57;8.23;;;-0.90;99.90;;;;;;5038660;28;20093;-69
2021/12/18 02:51:42;;;;;;;13.90;8.07;;;-0.90;99.90;;;;;;5038080;28;20187;-69
2021/12/18 02:54:09;;;;;;;14.90;7.53;;;-0.90;99.90;;;;;;5037552;28;20030;-69
2021/12/18 02:56:35;;;;;;;15.77;8.02;;;-0.90;99.90;;;;;;5037545;28;20026;-69
2021/12/18 02:59:06;;;;;;;14.95;7.60;;;-0.90;99.90;;;;;;5037339;28;20103;-69
2021/12/18 03:01:34;;;;;;;18.77;8.95;;;-0.90;99.90;;;;;;5037377;28;20100;-69
2021/12/18 03:04:03;;;;;;;16.75;8.05;;;-0.90;99.90;;;;;;5035396;28;20037;-69
2021/12/18 03:06:40;;;;;;;16.25;7.95;;;-0.90;99.90;;;;;;5036140;28;20389;-69
2021/12/18 03:25:26;;;;;;;20.90;9.90;;;-1.00;99.90;;;;;;5037591;28;20033;-71
2021/12/18 03:27:53;;;;;;;17.98;8.40;;;-1.10;99.90;;;;;;5036201;28;20396;-71
2021/12/18 03:30:21;;;;;;;19.38;9.52;;;-1.20;99.90;;;;;;5036072;28;20116;-71
2021/12/18 03:32:47;;;;;;;23.17;9.07;;;-1.20;99.90;;;;;;5035716;28;20029;-71
2021/12/18 03:35:15;;;;;;;23.35;9.82;;;-1.30;99.90;;;;;;5035733;28;20417;-71
2021/12/18 03:37:42;;;;;;;19.75;9.15;;;-1.40;99.90;;;;;;5036728;28;20026;-71
2021/12/18 03:40:12;;;;;;;19.23;9.38;;;-1.50;99.90;;;;;;5037205;28;20025;-71
2021/12/18 03:42:38;;;;;;;20.58;8.80;;;-1.60;99.90;;;;;;5037255;28;20029;-71
2021/12/18 03:45:12;;;;;;;16.92;8.63;;;-1.70;99.90;;;;;;5035537;28;20434;-71
2021/12/18 03:47:48;;;;;;;18.77;8.95;;;-1.70;99.90;;;;;;5033546;28;20033;-71
2021/12/18 03:50:17;;;;;;;23.20;10.90;;;-1.70;99.90;;;;;;5035683;28;20044;-71
2021/12/18 03:52:44;;;;;;;16.95;8.85;;;-1.60;99.90;;;;;;5036465;28;20080;-70
2021/12/18 03:55:11;;;;;;;18.50;9.40;;;-1.50;99.90;;;;;;5036474;28;20022;-70
2021/12/18 03:57:37;;;;;;;20.48;9.88;;;-1.40;99.90;;;;;;5035136;28;20022;-71
2021/12/18 04:00:05;;;;;;;17.70;8.32;;;-1.40;99.90;;;;;;5035017;28;20018;-71
2021/12/18 04:02:31;;;;;;;21.00;9.02;;;-1.30;99.90;;;;;;5035071;28;20025;-71
2021/12/18 04:04:57;;;;;;;22.48;10.20;;;-1.40;99.90;;;;;;5036344;28;20077;-71
2021/12/18 04:07:23;;;;;;;17.45;8.60;;;-1.40;99.90;;;;;;5034700;28;20137;-71
2021/12/18 04:09:50;;;;;;;16.90;8.65;;;-1.40;99.90;;;;;;5034675;28;20037;-71
2021/12/18 04:12:17;;;;;;;18.48;8.50;;;-1.40;99.90;;;;;;5035527;28;20393;-71
2021/12/18 04:14:46;;;;;;;14.80;7.72;;;-1.40;99.90;;;;;;5034480;28;20037;-70
2021/12/18 04:17:12;;;;;;;18.63;8.68;;;-1.40;99.90;;;;;;5034416;28;20495;-71
2021/12/18 04:19:39;;;;;;;14.68;7.82;;;-1.40;99.90;;;;;;5035426;28;20037;-71
2021/12/18 04:22:05;;;;;;;17.17;7.63;;;-1.40;99.90;;;;;;5035394;28;20084;-71
2021/12/18 04:24:30;;;;;;;16.88;7.68;;;-1.40;99.90;;;;;;5034716;28;20033;-71
2021/12/18 04:26:57;;;;;;;14.80;7.47;;;-1.30;99.90;;;;;;5035753;28;20512;-71
2021/12/18 04:29:23;;;;;;;16.92;8.10;;;-1.30;99.90;;;;;;5035525;28;20029;-71
2021/12/18 04:31:49;;;;;;;16.00;7.47;;;-1.30;99.90;;;;;;5035506;28;20113;-71
2021/12/18 04:34:16;;;;;;;16.08;8.52;;;-1.30;99.90;;;;;;5033939;28;20021;-71
2021/12/18 04:36:42;;;;;;;15.13;7.82;;;-1.30;99.90;;;;;;5035614;28;20045;-71
2021/12/18 04:39:08;;;;;;;14.88;7.45;;;-1.30;99.90;;;;;;5034166;28;20508;-71
2021/12/18 04:41:40;;;;;;;14.73;7.15;;;-1.30;99.90;;;;;;5033878;28;20028;-71
2021/12/18 04:44:07;;;;;;;16.70;8.63;;;-1.40;99.90;;;;;;5034174;28;20421;-71
2021/12/18 04:46:33;;;;;;;14.30;7.82;;;-1.50;99.90;;;;;;5034395;28;20036;-71
2021/12/18 04:48:59;;;;;;;18.38;8.73;;;-1.50;99.90;;;;;;5035337;28;20078;-71
2021/12/18 04:51:24;;;;;;;15.73;8.13;;;-1.50;99.90;;;;;;5036569;28;20107;-71
2021/12/18 04:53:50;;;;;;;15.30;7.25;;;-1.50;99.90;;;;;;5035738;28;20033;-71
2021/12/18 04:56:16;;;;;;;14.95;7.43;;;-1.50;99.90;;;;;;5035876;28;20032;-71
2021/12/18 04:58:43;;;;;;;14.23;7.40;;;-1.50;99.90;;;;;;5034517;28;20021;-71
2021/12/18 05:01:09;;;;;;;16.25;7.50;;;-1.50;99.90;;;;;;5036413;28;20064;-71
2021/12/18 05:03:38;;;;;;;18.80;8.68;;;-1.40;99.90;;;;;;5036144;28;20084;-71
2021/12/18 05:06:04;;;;;;;19.70;9.52;;;-1.40;99.90;;;;;;5034231;28;20056;-71
2021/12/18 05:08:30;;;;;;;19.10;9.27;;;-1.40;99.90;;;;;;5036084;28;20470;-71
2021/12/18 05:10:56;;;;;;;19.27;9.00;;;-1.40;99.90;;;;;;5033043;28;20025;-71
2021/12/18 05:13:22;;;;;;;21.63;9.93;;;-1.50;99.90;;;;;;5033921;28;20021;-71
2021/12/18 05:15:48;;;;;;;18.27;8.98;;;-1.50;99.90;;;;;;5033735;28;20028;-71
2021/12/18 05:18:14;;;;;;;14.57;7.80;;;-1.50;99.90;;;;;;5035033;28;20022;-71
2021/12/18 05:20:40;;;;;;;15.23;7.80;;;-1.50;99.90;;;;;;5035315;28;20021;-71
2021/12/18 05:23:07;;;;;;;14.93;6.93;;;-1.50;99.90;;;;;;5034918;28;20504;-71
2021/12/18 05:25:32;;;;;;;14.68;7.07;;;-1.50;99.90;;;;;;5034621;28;20025;-71
2021/12/18 05:27:58;;;;;;;16.50;7.07;;;-1.60;99.90;;;;;;5033247;28;20078;-71
2021/12/18 05:30:24;;;;;;;15.60;7.35;;;-1.50;99.90;;;;;;5035529;28;20489;-71
2021/12/18 05:32:50;;;;;;;16.77;7.50;;;-1.50;99.90;;;;;;5034530;28;20029;-71
2021/12/18 05:35:16;;;;;;;13.38;7.50;;;-1.50;99.90;;;;;;5033212;28;20029;-71
2021/12/18 05:37:49;;;;;;;14.70;6.47;;;-1.50;99.90;;;;;;5033444;28;20021;-71
2021/12/18 05:40:23;;;;;;;12.68;6.85;;;-1.50;99.90;;;;;;5033852;28;20022;-71
2021/12/18 05:42:52;;;;;;;14.32;6.72;;;-1.60;99.90;;;;;;5033326;28;20393;-71
2021/12/18 05:45:18;;;;;;;11.93;6.20;;;-1.60;99.90;;;;;;5033773;28;20075;-70
2021/12/18 05:47:45;;;;;;;12.70;6.53;;;-1.60;99.90;;;;;;5033642;28;20037;-71
2021/12/18 05:50:13;;;;;;;13.77;6.15;;;-1.70;99.90;;;;;;5033394;28;20025;-71
2021/12/18 05:52:39;;;;;;;11.38;6.28;;;-1.70;99.90;;;;;;5031876;28;20437;-71
2021/12/18 05:55:06;;;;;;;13.68;6.65;;;-1.80;99.90;;;;;;5033323;28;20021;-71
2021/12/18 05:57:31;;;;;;;12.50;7.03;;;-1.90;99.90;;;;;;5033032;28;20033;-71
2021/12/18 05:59:57;;;;;;;15.90;6.80;;;-2.00;99.90;;;;;;5033352;28;20071;-71
2021/12/18 06:02:23;;;;;;;13.95;6.88;;;-2.00;99.90;;;;;;5033520;28;20500;-70
2021/12/18 06:04:48;;;;;;;15.88;7.25;;;-2.00;99.90;;;;;;5033508;28;20021;-71
2021/12/18 06:07:28;;;;;;;15.82;7.22;;;-2.00;99.90;;;;;;5033533;28;20096;-70
2021/12/18 06:09:55;;;;;;;13.73;6.65;;;-2.00;99.90;;;;;;5033244;28;20055;-71
2021/12/18 06:12:21;;;;;;;21.98;10.00;;;-2.00;99.90;;;;;;5032928;28;20025;-71
2021/12/18 06:14:46;;;;;;;24.23;11.35;;;-2.00;99.90;;;;;;5033219;28;20033;-71
2021/12/18 06:17:12;;;;;;;30.20;11.98;;;-1.90;99.90;;;;;;5033332;28;20354;-71
2021/12/18 06:19:38;;;;;;;27.35;11.30;;;-1.90;99.90;;;;;;5033625;28;20413;-71
2021/12/18 06:22:03;;;;;;;23.85;10.57;;;-1.90;99.90;;;;;;5031860;28;20112;-71
2021/12/18 06:24:29;;;;;;;14.05;6.72;;;-1.90;99.90;;;;;;5033081;28;20025;-71
2021/12/18 06:26:56;;;;;;;12.38;6.47;;;-1.90;99.90;;;;;;5033056;28;20068;-71
2021/12/18 06:29:22;;;;;;;9.80;4.75;;;-1.90;99.90;;;;;;5033067;28;20025;-71
2021/12/18 06:31:48;;;;;;;12.27;5.47;;;-2.00;99.90;;;;;;5033034;28;20021;-71
2021/12/18 06:34:14;;;;;;;10.18;4.75;;;-2.10;99.90;;;;;;5033037;28;20029;-71
2021/12/18 06:36:40;;;;;;;11.43;5.18;;;-2.20;99.90;;;;;;5033071;28;20056;-71
2021/12/18 06:39:06;;;;;;;9.68;4.82;;;-2.20;99.90;;;;;;5033251;28;20053;-72
2021/12/18 06:41:32;;;;;;;11.90;5.63;;;-2.30;99.90;;;;;;5032675;28;20104;-71
2021/12/18 06:43:58;;;;;;;11.20;6.00;;;-2.30;99.90;;;;;;5032911;28;20028;-71
2021/12/18 06:46:24;;;;;;;15.20;5.88;;;-2.30;99.90;;;;;;5033246;28;20026;-71
2021/12/18 06:48:49;;;;;;;11.38;5.97;;;-2.40;99.90;;;;;;5036607;28;20105;-71
2021/12/18 06:51:16;;;;;;;12.65;6.03;;;-2.40;99.90;;;;;;5036818;28;20355;-71
2021/12/18 06:53:42;;;;;;;14.00;6.43;;;-2.40;99.90;;;;;;5045482;23;20065;-84
2021/12/18 06:56:08;;;;;;;14.68;7.65;;;-2.40;99.90;;;;;;5040042;28;20029;-84
2021/12/18 06:58:34;;;;;;;16.00;8.18;;;-2.40;99.90;;;;;;5039643;28;20026;-84
2021/12/18 07:00:59;;;;;;;16.73;9.45;;;-2.40;99.90;;;;;;5039912;28;20026;-84
2021/12/18 07:03:26;;;;;;;15.45;7.80;;;-2.40;99.90;;;;;;5039326;28;20108;-84
2021/12/18 07:05:51;;;;;;;16.10;8.27;;;-2.40;99.90;;;;;;5034667;28;20092;-84
2021/12/18 07:08:17;;;;;;;16.08;8.80;;;-2.40;99.90;;;;;;5019853;28;20025;-84
2021/12/18 07:10:44;;;;;;;18.75;8.35;;;-2.40;99.90;;;;;;5034905;28;20026;-84
2021/12/18 07:13:10;;;;;;;18.42;8.57;;;-2.40;99.90;;;;;;5019616;28;20185;-84
2021/12/18 07:15:35;;;;;;;18.80;8.52;;;-2.50;99.90;;;;;;5018520;28;20118;-84
2021/12/18 07:18:01;;;;;;;19.10;9.00;;;-2.50;99.90;;;;;;5019395;28;20026;-84
2021/12/18 07:20:31;;;;;;;20.63;9.90;;;-2.50;99.90;;;;;;5018505;28;20057;-84
2021/12/18 07:22:57;;;;;;;20.60;9.75;;;-2.50;99.90;;;;;;5018708;28;20033;-84
2021/12/18 07:25:23;;;;;;;21.52;9.40;;;-2.40;99.90;;;;;;5020570;28;20030;-84
2021/12/18 07:27:49;;;;;;;19.00;9.27;;;-2.40;99.90;;;;;;5021835;28;20018;-84
2021/12/18 07:30:15;;;;;;;17.02;8.15;;;-2.40;99.90;;;;;;5039902;28;20030;-84
2021/12/18 07:32:42;;;;;;;20.92;9.27;;;-2.40;99.90;;;;;;5039931;28;20026;-84
2021/12/18 07:35:09;;;;;;;21.38;9.57;;;-2.30;99.90;;;;;;5040281;28;20382;-84
2021/12/18 07:37:36;;;;;;;19.67;9.13;;;-2.30;99.90;;;;;;5039538;28;20022;-84
2021/12/18 07:40:04;;;;;;;24.65;11.95;;;-2.20;99.90;;;;;;5038650;28;20037;-84
2021/12/18 07:42:30;;;;;;;26.75;11.02;;;-2.20;99.90;;;;;;5043019;28;20477;-84
2021/12/18 07:44:57;;;;;;;21.92;10.77;;;-2.20;99.90;;;;;;5043806;28;20036;-84
2021/12/18 07:47:23;;;;;;;20.25;9.68;;;-2.20;99.90;;;;;;5039368;28;20033;-84
2021/12/18 07:49:48;;;;;;;18.00;8.93;;;-2.20;99.90;;;;;;5039168;28;20113;-84
2021/12/18 07:52:15;;;;;;;17.58;8.93;;;-2.10;99.90;;;;;;5040842;28;20093;-84
2021/12/18 07:54:41;;;;;;;18.58;8.40;;;-2.10;99.90;;;;;;5039013;28;20048;-84
2021/12/18 07:57:07;;;;;;;19.15;8.70;;;-2.10;99.90;;;;;;5037185;28;20477;-85
2021/12/18 07:59:33;;;;;;;21.77;11.15;;;-2.10;99.90;;;;;;5036068;28;20021;-84
2021/12/18 08:02:00;;;;;;;22.70;10.15;;;-2.10;99.90;;;;;;5037554;28;20030;-85
2021/12/18 08:04:26;;;;;;;20.45;9.63;;;-2.10;99.90;;;;;;5036750;28;20363;-85
2021/12/18 08:06:52;;;;;;;20.88;10.13;;;-2.10;99.90;;;;;;5036345;28;20424;-85
2021/12/18 08:09:18;;;;;;;18.17;9.32;;;-2.00;99.90;;;;;;5036644;28;20034;-85
2021/12/18 08:11:44;;;;;;;24.25;10.27;;;-2.00;99.90;;;;;;5037067;28;20540;-85
2021/12/18 08:14:09;;;;;;;24.90;10.95;;;-2.00;99.90;;;;;;5039013;28;20442;-85
2021/12/18 08:16:35;;;;;;;21.30;11.32;;;-2.00;99.90;;;;;;5040893;28;20068;-85
2021/12/18 08:19:01;;;;;;;24.52;12.18;;;-1.90;99.90;;;;;;5039970;28;20029;-85
2021/12/18 08:21:26;;;;;;;26.02;11.95;;;-1.90;99.90;;;;;;5040349;28;20093;-85
2021/12/18 08:23:52;;;;;;;20.92;10.13;;;-1.90;99.90;;;;;;5040816;28;20025;-85
2021/12/18 08:26:20;;;;;;;24.83;10.55;;;-1.90;99.90;;;;;;5039396;28;20057;-85
2021/12/18 08:28:46;;;;;;;24.08;11.13;;;-1.90;99.90;;;;;;5041073;28;20379;-85
2021/12/18 08:31:12;;;;;;;21.48;9.63;;;-1.90;99.90;;;;;;5039784;28;20052;-85
2021/12/18 08:33:37;;;;;;;23.50;10.57;;;-1.90;99.90;;;;;;5041787;28;20025;-85
2021/12/18 08:36:03;;;;;;;22.63;10.18;;;-1.90;99.90;;;;;;5042026;28;20079;-86
2021/12/18 08:38:29;;;;;;;26.85;11.32;;;-1.80;99.90;;;;;;5042505;28;20017;-85
2021/12/18 08:40:55;;;;;;;24.70;11.20;;;-1.90;99.90;;;;;;5041766;28;20045;-85
2021/12/18 08:43:20;;;;;;;27.70;10.43;;;-1.90;99.90;;;;;;5042792;28;20025;-85
2021/12/18 08:45:46;;;;;;;25.83;12.32;;;-1.90;99.90;;;;;;5057582;28;20040;-83
2021/12/18 08:48:12;;;;;;;32.75;12.05;;;-1.90;99.90;;;;;;5056889;28;20032;-83
2021/12/18 08:50:38;;;;;;;25.25;11.18;;;-1.80;99.90;;;;;;5055147;28;20029;-84
2021/12/18 08:53:04;;;;;;;25.25;10.48;;;-1.80;99.90;;;;;;5055986;28;20056;-84
2021/12/18 08:55:29;;;;;;;28.42;12.25;;;-1.80;99.90;;;;;;5055038;28;20022;-84
2021/12/18 08:57:55;;;;;;;24.65;11.68;;;-1.80;99.90;;;;;;5054058;28;20029;-84
2021/12/18 09:00:23;;;;;;;28.48;11.48;;;-1.70;99.90;;;;;;5039705;28;20022;-84
2021/12/18 09:02:53;;;;;;;24.65;11.88;;;-1.60;99.90;;;;;;5035946;28;20033;-85
2021/12/18 09:05:18;;;;;;;28.38;12.23;;;-1.60;99.90;;;;;;5035410;28;20029;-85
2021/12/18 09:07:44;;;;;;;30.08;12.23;;;-1.60;99.90;;;;;;5036416;28;20041;-84
2021/12/18 09:10:12;;;;;;;27.98;12.30;;;-1.60;99.90;;;;;;5035080;28;20025;-84
2021/12/18 09:12:38;;;;;;;27.27;11.50;;;-1.60;99.90;;;;;;5035502;28;20036;-85
2021/12/18 09:15:04;;;;;;;28.00;11.98;;;-1.60;99.90;;;;;;5036778;28;20021;-84
2021/12/18 09:17:30;;;;;;;24.40;11.60;;;-1.60;99.90;;;;;;5035577;28;20030;-84
2021/12/18 09:19:55;;;;;;;31.30;11.80;;;-1.60;99.90;;;;;;5035942;28;20113;-84
2021/12/18 09:22:22;;;;;;;25.52;11.50;;;-1.60;99.90;;;;;;5036372;28;20064;-85
2021/12/18 09:24:48;;;;;;;25.45;12.07;;;-1.60;99.90;;;;;;5036224;28;20041;-85
2021/12/18 09:27:17;;;;;;;28.83;12.55;;;-1.60;99.90;;;;;;5036411;28;20026;-85
2021/12/18 09:29:44;;;;;;;33.40;13.70;;;-1.60;99.90;;;;;;5036465;28;20096;-85
2021/12/18 09:32:10;;;;;;;28.35;12.43;;;-1.60;99.90;;;;;;5037601;28;20380;-85
2021/12/18 09:34:36;;;;;;;30.83;13.50;;;-1.50;99.90;;;;;;5036900;28;20112;-85
2021/12/18 09:37:04;;;;;;;26.95;12.25;;;-1.40;99.90;;;;;;5046399;28;20063;-85
2021/12/18 09:39:30;;;;;;;26.15;11.05;;;-1.30;99.90;;;;;;5039689;28;20057;-85
2021/12/18 09:41:55;;;;;;;22.98;11.63;;;-1.30;99.90;;;;;;5036485;28;20032;-85
2021/12/18 09:44:26;;;;;;;30.23;12.70;;;-1.30;99.90;;;;;;5037345;28;20441;-85
2021/12/18 09:46:52;;;;;;;23.77;11.52;;;-1.20;99.90;;;;;;5037442;28;20036;-84
2021/12/18 09:49:19;;;;;;;32.17;11.32;;;-1.20;99.90;;;;;;5035249;28;20486;-84
2021/12/18 09:51:44;;;;;;;27.77;13.00;;;-1.20;99.90;;;;;;5036419;28;20478;-85
2021/12/18 09:54:10;;;;;;;27.27;12.15;;;-1.20;99.90;;;;;;5034332;28;20033;-85
2021/12/18 09:56:36;;;;;;;29.45;12.93;;;-1.20;99.90;;;;;;5034515;28;20018;-84
2021/12/18 09:59:02;;;;;;;24.52;13.00;;;-1.10;99.90;;;;;;5035947;28;20530;-85
2021/12/18 10:01:28;;;;;;;23.23;10.77;;;-1.20;99.90;;;;;;5035912;28;20025;-84
2021/12/18 10:03:58;;;;;;;23.27;10.23;;;-1.20;99.90;;;;;;5035292;28;20071;-85
2021/12/18 10:06:38;;;;;;;26.63;11.77;;;-1.10;99.90;;;;;;5036125;28;20024;-85
2021/12/18 10:09:11;;;;;;;30.38;11.68;;;-1.10;99.90;;;;;;5035767;28;20052;-84
2021/12/18 10:11:45;;;;;;;24.48;11.38;;;-1.10;99.90;;;;;;5035949;28;20081;-84
2021/12/18 10:14:11;;;;;;;28.52;13.45;;;-1.20;99.90;;;;;;5034276;28;20028;-85
2021/12/18 10:16:43;;;;;;;24.92;11.40;;;-1.20;99.90;;;;;;5034403;28;20386;-85
2021/12/18 10:19:32;;;;;;;24.00;10.68;;;-1.20;99.90;;;;;;5034254;28;20056;-85
2021/12/18 10:22:05;;;;;;;28.02;11.00;;;-1.20;99.90;;;;;;5036432;28;20075;-85
2021/12/18 10:24:33;;;;;;;24.77;11.43;;;-1.20;99.90;;;;;;5038831;28;20108;-85
2021/12/18 10:27:01;;;;;;;27.23;12.13;;;-1.20;99.90;;;;;;5038873;28;20025;-85
2021/12/18 10:29:35;;;;;;;26.83;12.38;;;-1.20;99.90;;;;;;5037374;28;20490;-86
2021/12/18 10:32:10;;;;;;;26.10;12.05;;;-1.20;99.90;;;;;;5038978;28;20375;-85
2021/12/18 10:34:37;;;;;;;27.58;12.55;;;-1.20;99.90;;;;;;5038563;28;20032;-85
2021/12/18 10:37:11;;;;;;;26.00;12.20;;;-1.10;99.90;;;;;;5041010;28;20067;-85
2021/12/18 10:39:40;;;;;;;25.30;11.63;;;-1.10;99.90;;;;;;5038419;28;20021;-85
2021/12/18 10:42:24;;;;;;;22.50;10.60;;;-1.00;99.90;;;;;;5038418;28;20029;-84
2021/12/18 10:44:57;;;;;;;25.80;12.18;;;-1.00;99.90;;;;;;5038710;28;20029;-84
2021/12/18 10:47:23;;;;;;;23.00;12.23;;;-1.00;99.90;;;;;;5036871;28;20584;-85
2021/12/18 10:49:49;;;;;;;24.23;11.30;;;-1.00;99.90;;;;;;5036736;28;20041;-85
2021/12/18 10:52:14;;;;;;;26.23;12.45;;;-1.00;99.90;;;;;;5037141;28;20036;-85
2021/12/18 10:54:40;;;;;;;31.63;13.40;;;-0.90;99.90;;;;;;5036845;28;20029;-85
2021/12/18 10:57:20;;;;;;;26.13;12.00;;;-0.90;99.90;;;;;;5037948;28;20107;-85
2021/12/18 10:59:48;;;;;;;27.58;12.98;;;-0.80;99.90;;;;;;5018540;28;20025;-84
2021/12/18 11:02:15;;;;;;;24.88;11.88;;;-0.80;99.90;;;;;;5018151;28;20025;-85
2021/12/18 11:04:43;;;;;;;29.90;13.05;;;-0.70;99.90;;;;;;5016582;28;20056;-85
2021/12/18 11:07:28;;;;;;;28.15;12.38;;;-0.70;99.90;;;;;;5034479;28;20525;-84
2021/12/18 11:10:12;;;;;;;28.77;12.27;;;-0.70;99.90;;;;;;5036658;28;20131;-85
2021/12/18 11:15:22;;;;;;;26.20;11.85;;;-0.60;99.90;;;;;;5038154;28;20024;-85
2021/12/18 11:17:49;;;;;;;28.80;13.43;;;-0.60;99.90;;;;;;5038370;28;20441;-85
2021/12/18 11:20:15;;;;;;;26.83;12.48;;;-0.60;99.90;;;;;;5037919;28;20024;-85
2021/12/18 11:22:41;;;;;;;25.27;11.52;;;-0.60;99.90;;;;;;5034073;28;20125;-85
2021/12/18 11:25:10;;;;;;;23.50;11.10;;;-0.60;99.90;;;;;;5016989;28;20536;-85
2021/12/18 11:27:38;;;;;;;30.30;12.68;;;-0.50;99.90;;;;;;5031903;28;20057;-85
2021/12/18 11:30:09;;;;;;;24.20;11.88;;;-0.60;99.90;;;;;;5042100;28;20430;-85
2021/12/18 11:32:40;;;;;;;24.88;11.27;;;-0.50;99.90;;;;;;5038010;28;20028;-85
2021/12/18 11:35:09;;;;;;;23.25;11.18;;;-0.50;99.90;;;;;;5017951;28;20038;-82
2021/12/18 11:37:44;;;;;;;22.73;11.25;;;-0.40;99.90;;;;;;5018373;28;20037;-82
2021/12/18 11:40:14;;;;;;;20.67;10.40;;;-0.40;99.90;;;;;;5017568;28;20024;-81
2021/12/18 11:42:41;;;;;;;19.58;10.43;;;-0.30;99.90;;;;;;5017765;28;20104;-83
2021/12/18 11:45:08;;;;;;;22.42;10.32;;;-0.20;99.90;;;;;;5017266;28;20524;-82
2021/12/18 11:47:38;;;;;;;24.10;11.23;;;-0.20;99.90;;;;;;5015934;28;20022;-81
2021/12/18 11:50:19;;;;;;;21.02;10.50;;;-0.20;99.90;;;;;;5017563;28;20025;-81
2021/12/18 11:53:03;;;;;;;18.23;8.00;;;-0.10;99.90;;;;;;5015381;28;20057;-82
2021/12/18 11:55:49;;;;;;;24.10;11.15;;;-0.10;99.90;;;;;;5016691;28;20058;-81
2021/12/18 11:58:27;;;;;;;20.15;9.63;;;-0.10;99.90;;;;;;5017045;28;20026;-81
2021/12/18 12:01:25;;;;;;;27.02;11.07;;;-0.10;99.90;;;;;;5016513;28;20443;-82
2021/12/18 12:03:50;;;;;;;23.08;11.20;;;0.00;99.90;;;;;;4999334;28;20050;-82
2021/12/18 12:06:25;;;;;;;22.48;10.80;;;0.00;99.90;;;;;;5016282;28;20037;-81
2021/12/18 12:09:09;;;;;;;19.35;9.57;;;0.00;99.90;;;;;;5014891;28;20382;-81
2021/12/18 12:12:07;;;;;;;28.58;11.10;;;0.10;99.90;;;;;;5016270;28;20033;-82
2021/12/18 12:14:40;;;;;;;25.75;9.82;;;0.10;99.90;;;;;;5016096;28;20101;-81
2021/12/18 12:17:10;;;;;;;41.75;10.45;;;0.10;99.90;;;;;;5016119;28;20037;-82
2021/12/18 12:19:36;;;;;;;20.50;9.88;;;0.20;99.90;;;;;;5014928;28;20032;-82
2021/12/18 12:22:04;;;;;;;22.90;10.73;;;0.20;99.90;;;;;;5022779;28;20021;-81
2021/12/18 12:24:56;;;;;;;18.40;9.15;;;0.20;99.90;;;;;;5036505;28;20033;-82
2021/12/18 12:27:27;;;;;;;22.02;9.20;;;0.30;99.90;;;;;;5034524;28;20035;-83
2021/12/18 12:29:54;;;;;;;20.70;10.32;;;0.30;99.90;;;;;;5035073;28;20088;-83
2021/12/18 12:32:20;;;;;;;18.00;8.30;;;0.40;99.90;;;;;;5034596;28;20032;-83
2021/12/18 12:35:08;;;;;;;17.10;9.65;;;0.50;99.90;;;;;;5034948;28;20486;-83
2021/12/18 12:37:46;;;;;;;19.42;9.57;;;0.50;99.90;;;;;;5021581;28;20030;-83
2021/12/18 12:40:12;;;;;;;23.45;10.90;;;0.60;99.90;;;;;;5034120;28;20030;-81
2021/12/18 12:42:39;;;;;;;17.67;9.65;;;0.60;99.90;;;;;;5035985;28;20021;-83
2021/12/18 12:45:14;;;;;;;21.95;12.45;;;0.60;99.90;;;;;;5035340;28;20028;-82
2021/12/18 12:47:52;;;;;;;32.55;14.95;;;0.70;99.90;;;;;;5034350;28;20039;-82
2021/12/18 12:50:20;;;;;;;27.33;13.98;;;0.70;99.90;;;;;;5033821;28;20025;-81
2021/12/18 12:52:49;;;;;;;29.70;14.05;;;0.80;99.90;;;;;;5032604;28;20092;-83
2021/12/18 12:55:20;;;;;;;26.33;13.40;;;0.80;99.90;;;;;;5033197;28;20037;-81
2021/12/18 12:57:50;;;;;;;28.60;13.48;;;0.90;99.90;;;;;;5034707;28;20136;-81
2021/12/18 13:00:21;;;;;;;25.08;12.65;;;1.00;99.90;;;;;;5034777;28;20022;-81
2021/12/18 13:03:12;;;;;;;28.73;13.77;;;1.00;99.90;;;;;;5032437;28;20036;-82
2021/12/18 13:06:04;;;;;;;25.65;13.30;;;1.10;99.90;;;;;;5034732;28;20390;-81
2021/12/18 13:08:32;;;;;;;;;;;1.00;99.90;;;;;;5035379;28;20057;-82
2021/12/18 13:11:00;;;;;;;23.92;12.15;;;1.10;99.90;;;;;;5033337;28;20388;-81
2021/12/18 13:13:30;;;;;;;24.48;13.45;;;1.10;99.90;;;;;;5035051;28;20541;-81
2021/12/18 13:16:11;;;;;;;29.08;13.70;;;1.20;99.90;;;;;;5034809;28;20075;-82
2021/12/18 13:18:58;;;;;;;32.85;14.43;;;1.20;99.90;;;;;;5033727;28;20029;-81
2021/12/18 13:21:30;;;;;;;26.77;14.15;;;1.20;99.90;;;;;;5033625;28;20034;-81
2021/12/18 13:24:01;;;;;;;28.15;14.00;;;1.20;99.90;;;;;;5033755;28;20025;-81
2021/12/18 13:26:41;;;;;;;28.15;13.57;;;1.20;99.90;;;;;;5035784;28;20378;-81
2021/12/18 13:29:13;;;;;;;22.17;11.57;;;1.20;99.90;;;;;;5035773;28;20030;-82
2021/12/18 13:31:54;;;;;;;25.27;12.80;;;1.20;99.90;;;;;;5035560;28;20104;-81
2021/12/18 13:34:23;;;;;;;27.08;12.73;;;1.30;99.90;;;;;;5035415;28;20105;-81